Disney Magic — C6PT7 — position and weather

sailwx.info

Track history (hours):
 
Tides and Currents Weather Stations Pressure Air Temp Water Temp Dewpoint Dewpoint Depression Visibility Wind Speed Wind Dir Waves Ship Positions

Disney Magic

Last reported at 2014-Dec-20 16:00 UTC. Time now 2014-Dec-21 13:32 UTC.
Position N 26°00' W 077°30'.

Type: Passenger vessel. MMSI: 308516000.

Wind from 090 at 5 knots

Waves 0.5 meters (2 feet), 2 second period

Barometer 1019.5 mb
Air temperature 24.0 ° C
Visibility: greater than 5.4 NM
Dewpoint 18.8 ° C
Water temperature 26.0 ° C

Date/timePositionNaut miles runAvg speedWind from/ knotsBaromVisibWave heightAir tempDewpointWater temp
2014-Dec-20 16:00N 26°00' W 077°30'0 0.0 090 / 51019.5 5.4 0.524.018.826.0
2014-Dec-20 15:00N 26°00' W 077°30'0 0.0 060 / 71019.5 5.4 0.523.018.526.0
2014-Dec-20 13:00N 26°00' W 077°30'   040 / 91019.5 5.4 0.522.118.426.0
2014-Dec-16 22:33N 20°31' W 086°57'1 0.7
2014-Dec-16 21:31N 20°31' W 086°57'0 0.0
2014-Dec-16 20:31N 20°31' W 086°57'0 0.0
2014-Dec-16 19:31N 20°31' W 086°57'0 0.0
2014-Dec-16 18:25N 20°31' W 086°57'0 0.0
2014-Dec-16 17:28N 20°31' W 086°57'0 0.0
2014-Dec-16 16:28N 20°31' W 086°57'0 0.0
2014-Dec-16 15:28N 20°31' W 086°57'0 0.0
2014-Dec-16 14:29N 20°31' W 086°57'0 0.0
2014-Dec-16 13:30N 20°31' W 086°57'48816.8
2014-Dec-15 08:26N 25°30' W 079°59'1719.2
2014-Dec-15 07:33N 25°47' W 079°58'2020.0
2014-Dec-15 06:33N 26°07' W 079°56'2019.9
2014-Dec-15 05:33N 26°26' W 079°56'1919.4
2014-Dec-15 04:34N 26°46' W 079°56'1818.2
2014-Dec-15 03:33N 27°04' W 079°56'68 1.5
2014-Dec-13 07:21N 26°06' W 079°17'1316.6
2014-Dec-13 06:33N 25°55' W 079°25'1716.6
2014-Dec-13 05:33N 25°40' W 079°33'50917.9
2014-Dec-12 01:11N 20°35' W 086°56'5 7.0
2014-Dec-12 00:32N 20°31' W 086°57'0 0.0
2014-Dec-11 23:32N 20°31' W 086°57'0 0.0
2014-Dec-11 22:32N 20°31' W 086°57'0 0.0
2014-Dec-11 21:32N 20°31' W 086°57'0 0.0
2014-Dec-11 20:32N 20°31' W 086°57'0 0.0
2014-Dec-11 19:32N 20°31' W 086°57'0 0.0
2014-Dec-11 18:32N 20°31' W 086°57'0 0.0
2014-Dec-11 17:29N 20°31' W 086°57'0 0.0
2014-Dec-11 16:29N 20°31' W 086°57'0 0.0
2014-Dec-11 15:29N 20°31' W 086°57'3 2.8
2014-Dec-11 14:33N 20°33' W 086°57'  
Track history (hours):
 
Tides and Currents Weather Stations Pressure Air Temp Water Temp Dewpoint Dewpoint Depression Visibility Wind Speed Wind Dir Waves Ship Positions

Disney Magic

Last reported at 2014-Dec-20 16:00 UTC. Time now 2014-Dec-21 13:32 UTC.
Position N 26°00' W 077°30'.

Type: Passenger vessel. MMSI: 308516000.

Wind from 090 at 5 knots

Waves 0.5 meters (2 feet), 2 second period

Barometer 1019.5 mb
Air temperature 24.0 ° C
Visibility: greater than 5.4 NM
Dewpoint 18.8 ° C
Water temperature 26.0 ° C

Date/timePositionNaut miles runAvg speedWind from/ knotsBaromVisibWave heightAir tempDewpointWater temp
2014-Dec-20 16:00N 26°00' W 077°30'0 0.0 090 / 51019.5 5.4 0.524.018.826.0
2014-Dec-20 15:00N 26°00' W 077°30'0 0.0 060 / 71019.5 5.4 0.523.018.526.0
2014-Dec-20 13:00N 26°00' W 077°30'   040 / 91019.5 5.4 0.522.118.426.0
2014-Dec-16 22:33N 20°31' W 086°57'1 0.7
2014-Dec-16 21:31N 20°31' W 086°57'0 0.0
2014-Dec-16 20:31N 20°31' W 086°57'0 0.0
2014-Dec-16 19:31N 20°31' W 086°57'0 0.0
2014-Dec-16 18:25N 20°31' W 086°57'0 0.0
2014-Dec-16 17:28N 20°31' W 086°57'0 0.0
2014-Dec-16 16:28N 20°31' W 086°57'0 0.0
2014-Dec-16 15:28N 20°31' W 086°57'0 0.0
2014-Dec-16 14:29N 20°31' W 086°57'0 0.0
2014-Dec-16 13:30N 20°31' W 086°57'48816.8
2014-Dec-15 08:26N 25°30' W 079°59'1719.2
2014-Dec-15 07:33N 25°47' W 079°58'2020.0
2014-Dec-15 06:33N 26°07' W 079°56'2019.9
2014-Dec-15 05:33N 26°26' W 079°56'1919.4
2014-Dec-15 04:34N 26°46' W 079°56'1818.2
2014-Dec-15 03:33N 27°04' W 079°56'68 1.5
2014-Dec-13 07:21N 26°06' W 079°17'1316.6
2014-Dec-13 06:33N 25°55' W 079°25'1716.6
2014-Dec-13 05:33N 25°40' W 079°33'50917.9
2014-Dec-12 01:11N 20°35' W 086°56'5 7.0
2014-Dec-12 00:32N 20°31' W 086°57'0 0.0
2014-Dec-11 23:32N 20°31' W 086°57'0 0.0
2014-Dec-11 22:32N 20°31' W 086°57'0 0.0
2014-Dec-11 21:32N 20°31' W 086°57'0 0.0
2014-Dec-11 20:32N 20°31' W 086°57'0 0.0
2014-Dec-11 19:32N 20°31' W 086°57'0 0.0
2014-Dec-11 18:32N 20°31' W 086°57'0 0.0
2014-Dec-11 17:29N 20°31' W 086°57'0 0.0
2014-Dec-11 16:29N 20°31' W 086°57'0 0.0
2014-Dec-11 15:29N 20°31' W 086°57'3 2.8
2014-Dec-11 14:33N 20°33' W 086°57'  

Dump ship's entire track history